sensor_id;sensor_type;location;lat;lon;timestamp;pressure;altitude;pressure_sealevel;temperature;humidity
78431;BME280;67727;50.236;22.452;2024-03-22T00:02:10;99953.65;;;5.08;76.95
78431;BME280;67727;50.236;22.452;2024-03-22T00:04:37;99943.27;;;5.08;76.97
78431;BME280;67727;50.236;22.452;2024-03-22T00:07:04;99940.00;;;5.10;77.12
78431;BME280;67727;50.236;22.452;2024-03-22T00:09:31;99940.09;;;5.09;77.15
78431;BME280;67727;50.236;22.452;2024-03-22T00:11:57;99937.68;;;5.08;77.05
78431;BME280;67727;50.236;22.452;2024-03-22T00:14:24;99932.43;;;5.06;76.94
78431;BME280;67727;50.236;22.452;2024-03-22T00:16:51;99929.80;;;5.06;77.00
78431;BME280;67727;50.236;22.452;2024-03-22T00:19:18;99921.73;;;5.06;77.16
78431;BME280;67727;50.236;22.452;2024-03-22T00:21:45;99919.36;;;5.05;77.01
78431;BME280;67727;50.236;22.452;2024-03-22T00:24:12;99912.11;;;5.04;77.27
78431;BME280;67727;50.236;22.452;2024-03-22T00:26:38;99906.42;;;5.03;77.53
78431;BME280;67727;50.236;22.452;2024-03-22T00:29:06;99903.89;;;5.00;77.75
78431;BME280;67727;50.236;22.452;2024-03-22T00:31:32;99907.18;;;4.99;77.88
78431;BME280;67727;50.236;22.452;2024-03-22T00:33:59;99906.24;;;4.97;78.30
78431;BME280;67727;50.236;22.452;2024-03-22T00:36:26;99900.16;;;4.97;78.48
78431;BME280;67727;50.236;22.452;2024-03-22T00:38:53;99903.92;;;4.96;78.45
78431;BME280;67727;50.236;22.452;2024-03-22T00:41:20;99903.79;;;4.96;78.74
78431;BME280;67727;50.236;22.452;2024-03-22T00:43:46;99900.30;;;4.95;78.45
78431;BME280;67727;50.236;22.452;2024-03-22T00:46:13;99902.82;;;4.94;78.58
78431;BME280;67727;50.236;22.452;2024-03-22T00:48:40;99897.73;;;4.93;78.79
78431;BME280;67727;50.236;22.452;2024-03-22T00:51:07;99901.80;;;4.92;79.15
78431;BME280;67727;50.236;22.452;2024-03-22T00:53:34;99899.32;;;4.91;79.24
78431;BME280;67727;50.236;22.452;2024-03-22T00:56:00;99901.02;;;4.89;79.60
78431;BME280;67727;50.236;22.452;2024-03-22T00:58:27;99896.61;;;4.87;79.67
78431;BME280;67727;50.236;22.452;2024-03-22T01:00:55;99891.12;;;4.88;79.91
78431;BME280;67727;50.236;22.452;2024-03-22T01:03:22;99885.69;;;4.88;80.21
78431;BME280;67727;50.236;22.452;2024-03-22T01:05:49;99881.73;;;4.90;80.22
78431;BME280;67727;50.236;22.452;2024-03-22T01:08:16;99877.64;;;4.90;80.44
78431;BME280;67727;50.236;22.452;2024-03-22T01:10:43;99875.54;;;4.90;80.60
78431;BME280;67727;50.236;22.452;2024-03-22T01:13:10;99874.66;;;4.90;80.64
78431;BME280;67727;50.236;22.452;2024-03-22T01:15:36;99874.80;;;4.89;80.76
78431;BME280;67727;50.236;22.452;2024-03-22T01:18:04;99870.73;;;4.85;81.15
78431;BME280;67727;50.236;22.452;2024-03-22T01:20:30;99870.20;;;4.81;81.18
78431;BME280;67727;50.236;22.452;2024-03-22T01:22:59;99871.59;;;4.78;81.26
78431;BME280;67727;50.236;22.452;2024-03-22T01:25:27;99867.67;;;4.74;81.20
78431;BME280;67727;50.236;22.452;2024-03-22T01:27:55;99868.70;;;4.73;81.41
78431;BME280;67727;50.236;22.452;2024-03-22T01:30:22;99867.07;;;4.71;81.33
78431;BME280;67727;50.236;22.452;2024-03-22T01:32:49;99865.87;;;4.69;81.39
78431;BME280;67727;50.236;22.452;2024-03-22T01:35:16;99862.73;;;4.67;81.52
78431;BME280;67727;50.236;22.452;2024-03-22T01:37:43;99852.92;;;4.63;81.53
78431;BME280;67727;50.236;22.452;2024-03-22T01:40:10;99854.21;;;4.60;81.69
78431;BME280;67727;50.236;22.452;2024-03-22T01:42:37;99854.90;;;4.56;82.06
78431;BME280;67727;50.236;22.452;2024-03-22T01:45:05;99853.48;;;4.53;82.11
78431;BME280;67727;50.236;22.452;2024-03-22T01:47:32;99849.55;;;4.49;82.05
78431;BME280;67727;50.236;22.452;2024-03-22T01:50:00;99851.69;;;4.49;81.88
78431;BME280;67727;50.236;22.452;2024-03-22T01:52:27;99854.30;;;4.49;82.05
78431;BME280;67727;50.236;22.452;2024-03-22T01:54:54;99851.88;;;4.51;82.24
78431;BME280;67727;50.236;22.452;2024-03-22T01:57:21;99846.37;;;4.54;82.00
78431;BME280;67727;50.236;22.452;2024-03-22T01:59:49;99846.17;;;4.56;82.25
78431;BME280;67727;50.236;22.452;2024-03-22T02:02:18;99848.39;;;4.58;82.19
78431;BME280;67727;50.236;22.452;2024-03-22T02:04:44;99851.86;;;4.61;82.33
78431;BME280;67727;50.236;22.452;2024-03-22T02:07:11;99860.14;;;4.62;82.68
78431;BME280;67727;50.236;22.452;2024-03-22T02:09:38;99860.11;;;4.65;82.25
78431;BME280;67727;50.236;22.452;2024-03-22T02:12:06;99864.48;;;4.69;82.48
78431;BME280;67727;50.236;22.452;2024-03-22T02:14:32;99866.01;;;4.73;82.57
78431;BME280;67727;50.236;22.452;2024-03-22T02:16:59;99864.33;;;4.77;82.30
78431;BME280;67727;50.236;22.452;2024-03-22T02:19:26;99862.30;;;4.80;81.90
78431;BME280;67727;50.236;22.452;2024-03-22T02:21:52;99850.98;;;4.83;81.87
78431;BME280;67727;50.236;22.452;2024-03-22T02:24:19;99836.16;;;4.86;81.42
78431;BME280;67727;50.236;22.452;2024-03-22T02:26:46;99833.52;;;4.88;81.53
78431;BME280;67727;50.236;22.452;2024-03-22T02:29:13;99847.48;;;4.89;81.64
78431;BME280;67727;50.236;22.452;2024-03-22T02:31:40;99853.05;;;4.87;81.75
78431;BME280;67727;50.236;22.452;2024-03-22T02:34:07;99853.98;;;4.85;81.83
78431;BME280;67727;50.236;22.452;2024-03-22T02:36:34;99856.80;;;4.82;81.96
78431;BME280;67727;50.236;22.452;2024-03-22T02:39:01;99860.20;;;4.82;81.97
78431;BME280;67727;50.236;22.452;2024-03-22T02:41:27;99858.12;;;4.81;82.00
78431;BME280;67727;50.236;22.452;2024-03-22T02:43:54;99860.01;;;4.82;82.00
78431;BME280;67727;50.236;22.452;2024-03-22T02:46:21;99857.09;;;4.83;81.81
78431;BME280;67727;50.236;22.452;2024-03-22T02:48:48;99861.02;;;4.84;81.88
78431;BME280;67727;50.236;22.452;2024-03-22T02:51:15;99864.44;;;4.85;82.05
78431;BME280;67727;50.236;22.452;2024-03-22T02:53:42;99854.31;;;4.86;82.15
78431;BME280;67727;50.236;22.452;2024-03-22T02:56:09;99843.73;;;4.85;81.91
78431;BME280;67727;50.236;22.452;2024-03-22T02:58:36;99836.91;;;4.84;81.77
78431;BME280;67727;50.236;22.452;2024-03-22T03:01:03;99833.65;;;4.83;81.91
78431;BME280;67727;50.236;22.452;2024-03-22T03:03:30;99830.08;;;4.82;82.01
78431;BME280;67727;50.236;22.452;2024-03-22T03:05:57;99829.38;;;4.82;82.10
78431;BME280;67727;50.236;22.452;2024-03-22T03:08:23;99828.19;;;4.81;82.02
78431;BME280;67727;50.236;22.452;2024-03-22T03:10:50;99831.15;;;4.80;82.24
78431;BME280;67727;50.236;22.452;2024-03-22T03:13:17;99837.89;;;4.78;82.16
78431;BME280;67727;50.236;22.452;2024-03-22T03:15:44;99838.52;;;4.79;82.38
78431;BME280;67727;50.236;22.452;2024-03-22T03:18:11;99835.42;;;4.81;82.53
78431;BME280;67727;50.236;22.452;2024-03-22T03:20:37;99829.92;;;4.81;82.55
78431;BME280;67727;50.236;22.452;2024-03-22T03:23:05;99827.31;;;4.81;82.85
78431;BME280;67727;50.236;22.452;2024-03-22T03:25:31;99821.48;;;4.80;82.95
78431;BME280;67727;50.236;22.452;2024-03-22T03:27:58;99815.91;;;4.78;83.09
78431;BME280;67727;50.236;22.452;2024-03-22T03:30:25;99814.70;;;4.76;83.04
78431;BME280;67727;50.236;22.452;2024-03-22T03:32:52;99815.33;;;4.73;83.38
78431;BME280;67727;50.236;22.452;2024-03-22T03:35:19;99815.73;;;4.70;83.33
78431;BME280;67727;50.236;22.452;2024-03-22T03:37:46;99813.27;;;4.68;83.31
78431;BME280;67727;50.236;22.452;2024-03-22T03:40:13;99816.23;;;4.68;83.21
78431;BME280;67727;50.236;22.452;2024-03-22T03:42:39;99818.16;;;4.68;83.32
78431;BME280;67727;50.236;22.452;2024-03-22T03:45:07;99817.56;;;4.69;83.52
78431;BME280;67727;50.236;22.452;2024-03-22T03:47:34;99818.19;;;4.70;83.42
78431;BME280;67727;50.236;22.452;2024-03-22T03:50:00;99815.17;;;4.70;83.43
78431;BME280;67727;50.236;22.452;2024-03-22T03:52:27;99814.64;;;4.71;83.37
78431;BME280;67727;50.236;22.452;2024-03-22T03:54:54;99808.56;;;4.72;83.30
78431;BME280;67727;50.236;22.452;2024-03-22T03:57:20;99806.41;;;4.71;83.41
78431;BME280;67727;50.236;22.452;2024-03-22T03:59:47;99807.85;;;4.70;83.65
78431;BME280;67727;50.236;22.452;2024-03-22T04:02:14;99804.39;;;4.70;83.37
78431;BME280;67727;50.236;22.452;2024-03-22T04:04:41;99806.05;;;4.71;83.50
78431;BME280;67727;50.236;22.452;2024-03-22T04:07:08;99806.47;;;4.70;83.80
78431;BME280;67727;50.236;22.452;2024-03-22T04:09:35;99814.02;;;4.70;83.65
78431;BME280;67727;50.236;22.452;2024-03-22T04:12:02;99813.21;;;4.71;83.47
78431;BME280;67727;50.236;22.452;2024-03-22T04:14:28;99818.56;;;4.74;83.89
78431;BME280;67727;50.236;22.452;2024-03-22T04:16:55;99819.35;;;4.76;84.03
78431;BME280;67727;50.236;22.452;2024-03-22T04:19:22;99819.46;;;4.77;83.61
78431;BME280;67727;50.236;22.452;2024-03-22T04:21:50;99817.88;;;4.79;83.66
78431;BME280;67727;50.236;22.452;2024-03-22T04:24:17;99814.17;;;4.81;83.56
78431;BME280;67727;50.236;22.452;2024-03-22T04:26:44;99817.14;;;4.83;83.40
78431;BME280;67727;50.236;22.452;2024-03-22T04:29:10;99812.44;;;4.85;83.75
78431;BME280;67727;50.236;22.452;2024-03-22T04:31:37;99818.08;;;4.87;83.46
78431;BME280;67727;50.236;22.452;2024-03-22T04:34:04;99814.31;;;4.87;83.37
78431;BME280;67727;50.236;22.452;2024-03-22T04:36:34;99814.95;;;4.88;83.49
78431;BME280;67727;50.236;22.452;2024-03-22T04:39:01;99815.27;;;4.89;83.37
78431;BME280;67727;50.236;22.452;2024-03-22T04:41:28;99811.42;;;4.91;83.24
78431;BME280;67727;50.236;22.452;2024-03-22T04:43:55;99807.00;;;4.91;83.69
78431;BME280;67727;50.236;22.452;2024-03-22T04:46:22;99807.36;;;4.93;83.59
78431;BME280;67727;50.236;22.452;2024-03-22T04:48:48;99813.21;;;4.94;83.86
78431;BME280;67727;50.236;22.452;2024-03-22T04:51:15;99808.23;;;4.95;83.83
78431;BME280;67727;50.236;22.452;2024-03-22T04:53:42;99808.73;;;4.97;83.75
78431;BME280;67727;50.236;22.452;2024-03-22T04:56:10;99808.58;;;4.99;83.88
78431;BME280;67727;50.236;22.452;2024-03-22T04:58:37;99811.75;;;5.03;84.24
78431;BME280;67727;50.236;22.452;2024-03-22T05:01:04;99816.35;;;5.06;84.03
78431;BME280;67727;50.236;22.452;2024-03-22T05:03:30;99819.14;;;5.08;84.07
78431;BME280;67727;50.236;22.452;2024-03-22T05:05:57;99814.40;;;5.10;84.39
78431;BME280;67727;50.236;22.452;2024-03-22T05:08:24;99814.91;;;5.12;84.70
78431;BME280;67727;50.236;22.452;2024-03-22T05:10:52;99818.15;;;5.15;84.98
78431;BME280;67727;50.236;22.452;2024-03-22T05:13:19;99815.83;;;5.17;84.56
78431;BME280;67727;50.236;22.452;2024-03-22T05:15:46;99817.84;;;5.20;84.43
78431;BME280;67727;50.236;22.452;2024-03-22T05:18:13;99818.56;;;5.24;84.34
78431;BME280;67727;50.236;22.452;2024-03-22T05:20:39;99817.56;;;5.27;84.48
78431;BME280;67727;50.236;22.452;2024-03-22T05:23:06;99816.42;;;5.32;84.18
78431;BME280;67727;50.236;22.452;2024-03-22T05:25:33;99822.16;;;5.37;84.06
78431;BME280;67727;50.236;22.452;2024-03-22T05:28:00;99825.43;;;5.41;84.39
78431;BME280;67727;50.236;22.452;2024-03-22T05:30:27;99830.85;;;5.45;84.60
78431;BME280;67727;50.236;22.452;2024-03-22T05:32:54;99831.92;;;5.49;84.91
78431;BME280;67727;50.236;22.452;2024-03-22T05:35:20;99834.19;;;5.52;85.03
78431;BME280;67727;50.236;22.452;2024-03-22T05:37:47;99836.88;;;5.56;84.86
78431;BME280;67727;50.236;22.452;2024-03-22T05:40:17;99835.30;;;5.57;84.74
78431;BME280;67727;50.236;22.452;2024-03-22T05:42:44;99834.81;;;5.59;85.09
78431;BME280;67727;50.236;22.452;2024-03-22T05:45:10;99838.05;;;5.62;85.47
78431;BME280;67727;50.236;22.452;2024-03-22T05:47:37;99839.36;;;5.63;85.58
78431;BME280;67727;50.236;22.452;2024-03-22T05:50:05;99840.45;;;5.64;85.62
78431;BME280;67727;50.236;22.452;2024-03-22T05:52:35;99842.55;;;5.66;85.72
78431;BME280;67727;50.236;22.452;2024-03-22T05:55:01;99840.73;;;5.69;85.56
78431;BME280;67727;50.236;22.452;2024-03-22T05:57:29;99844.25;;;5.72;85.58
78431;BME280;67727;50.236;22.452;2024-03-22T05:59:56;99841.85;;;5.76;85.82
78431;BME280;67727;50.236;22.452;2024-03-22T06:02:23;99842.52;;;5.80;85.85
78431;BME280;67727;50.236;22.452;2024-03-22T06:04:50;99842.93;;;5.85;85.81
78431;BME280;67727;50.236;22.452;2024-03-22T06:07:17;99842.84;;;5.90;85.75
78431;BME280;67727;50.236;22.452;2024-03-22T06:09:44;99844.56;;;5.92;85.64
78431;BME280;67727;50.236;22.452;2024-03-22T06:12:15;99843.66;;;5.94;85.54
78431;BME280;67727;50.236;22.452;2024-03-22T06:14:42;99844.52;;;5.96;85.49
78431;BME280;67727;50.236;22.452;2024-03-22T06:17:10;99842.33;;;5.99;85.44
78431;BME280;67727;50.236;22.452;2024-03-22T06:19:37;99848.26;;;6.03;85.53
78431;BME280;67727;50.236;22.452;2024-03-22T06:22:04;99853.89;;;6.07;85.75
78431;BME280;67727;50.236;22.452;2024-03-22T06:24:31;99851.99;;;6.10;85.79
78431;BME280;67727;50.236;22.452;2024-03-22T06:26:58;99857.61;;;6.12;85.78
78431;BME280;67727;50.236;22.452;2024-03-22T06:29:25;99861.69;;;6.13;85.53
78431;BME280;67727;50.236;22.452;2024-03-22T06:31:52;99863.03;;;6.14;85.77
78431;BME280;67727;50.236;22.452;2024-03-22T06:34:19;99859.56;;;6.13;85.63
78431;BME280;67727;50.236;22.452;2024-03-22T06:36:46;99863.56;;;6.14;85.58
78431;BME280;67727;50.236;22.452;2024-03-22T06:39:14;99866.52;;;6.14;85.75
78431;BME280;67727;50.236;22.452;2024-03-22T06:41:41;99868.49;;;6.15;85.83
78431;BME280;67727;50.236;22.452;2024-03-22T06:44:08;99862.04;;;6.19;85.74
78431;BME280;67727;50.236;22.452;2024-03-22T06:46:39;99861.92;;;6.22;85.52
78431;BME280;67727;50.236;22.452;2024-03-22T06:49:06;99856.84;;;6.25;85.60
78431;BME280;67727;50.236;22.452;2024-03-22T06:51:33;99851.56;;;6.30;85.68
78431;BME280;67727;50.236;22.452;2024-03-22T06:54:00;99851.79;;;6.33;85.72
78431;BME280;67727;50.236;22.452;2024-03-22T06:56:26;99848.55;;;6.37;85.93
78431;BME280;67727;50.236;22.452;2024-03-22T06:58:53;99859.38;;;6.42;85.91
78431;BME280;67727;50.236;22.452;2024-03-22T07:01:20;99862.23;;;6.45;85.95
78431;BME280;67727;50.236;22.452;2024-03-22T07:03:47;99863.61;;;6.49;86.12
78431;BME280;67727;50.236;22.452;2024-03-22T07:06:14;99860.73;;;6.53;86.25
78431;BME280;67727;50.236;22.452;2024-03-22T07:08:41;99859.52;;;6.57;85.75
78431;BME280;67727;50.236;22.452;2024-03-22T07:11:08;99857.98;;;6.61;86.16
78431;BME280;67727;50.236;22.452;2024-03-22T07:13:35;99858.78;;;6.66;85.71
78431;BME280;67727;50.236;22.452;2024-03-22T07:16:03;99856.35;;;6.69;85.83
78431;BME280;67727;50.236;22.452;2024-03-22T07:18:30;99859.62;;;6.73;86.24
78431;BME280;67727;50.236;22.452;2024-03-22T07:20:57;99857.77;;;6.78;86.02
78431;BME280;67727;50.236;22.452;2024-03-22T07:23:28;99860.16;;;6.85;86.01
78431;BME280;67727;50.236;22.452;2024-03-22T07:25:54;99856.50;;;6.90;85.96
78431;BME280;67727;50.236;22.452;2024-03-22T07:28:21;99853.77;;;6.96;86.19
78431;BME280;67727;50.236;22.452;2024-03-22T07:30:48;99852.44;;;7.02;86.41
78431;BME280;67727;50.236;22.452;2024-03-22T07:33:15;99846.91;;;7.08;86.35
78431;BME280;67727;50.236;22.452;2024-03-22T07:35:44;99843.91;;;7.16;85.52
78431;BME280;67727;50.236;22.452;2024-03-22T07:38:11;99842.62;;;7.22;85.62
78431;BME280;67727;50.236;22.452;2024-03-22T07:40:38;99842.98;;;7.25;85.37
78431;BME280;67727;50.236;22.452;2024-03-22T07:43:05;99838.75;;;7.27;85.12
78431;BME280;67727;50.236;22.452;2024-03-22T07:45:35;99832.36;;;7.29;85.03
78431;BME280;67727;50.236;22.452;2024-03-22T07:48:02;99831.41;;;7.34;85.33
78431;BME280;67727;50.236;22.452;2024-03-22T07:50:29;99832.20;;;7.38;85.49
78431;BME280;67727;50.236;22.452;2024-03-22T07:52:56;99829.48;;;7.43;85.31
78431;BME280;67727;50.236;22.452;2024-03-22T07:55:23;99833.27;;;7.47;84.89
78431;BME280;67727;50.236;22.452;2024-03-22T07:57:50;99831.41;;;7.51;85.10
78431;BME280;67727;50.236;22.452;2024-03-22T08:00:17;99829.23;;;7.54;84.89
78431;BME280;67727;50.236;22.452;2024-03-22T08:02:45;99830.77;;;7.58;84.55
78431;BME280;67727;50.236;22.452;2024-03-22T08:05:11;99829.95;;;7.62;85.01
78431;BME280;67727;50.236;22.452;2024-03-22T08:07:38;99825.52;;;7.68;85.27
78431;BME280;67727;50.236;22.452;2024-03-22T08:10:05;99822.77;;;7.74;85.05
78431;BME280;67727;50.236;22.452;2024-03-22T08:12:32;99830.98;;;7.83;85.42
78431;BME280;67727;50.236;22.452;2024-03-22T08:14:59;99822.92;;;7.92;85.38
78431;BME280;67727;50.236;22.452;2024-03-22T08:17:25;99821.65;;;8.02;85.30
78431;BME280;67727;50.236;22.452;2024-03-22T08:19:52;99819.41;;;8.14;85.16
78431;BME280;67727;50.236;22.452;2024-03-22T08:22:19;99817.16;;;8.27;85.51
78431;BME280;67727;50.236;22.452;2024-03-22T08:24:46;99817.22;;;8.38;84.89
78431;BME280;67727;50.236;22.452;2024-03-22T08:27:13;99814.53;;;8.53;85.23
78431;BME280;67727;50.236;22.452;2024-03-22T08:29:40;99814.23;;;8.67;84.90
78431;BME280;67727;50.236;22.452;2024-03-22T08:32:07;99818.05;;;8.81;84.67
78431;BME280;67727;50.236;22.452;2024-03-22T08:34:33;99812.22;;;8.93;84.36
78431;BME280;67727;50.236;22.452;2024-03-22T08:37:00;99813.46;;;9.06;84.45
78431;BME280;67727;50.236;22.452;2024-03-22T08:39:27;99817.44;;;9.18;84.41
78431;BME280;67727;50.236;22.452;2024-03-22T08:41:54;99815.10;;;9.30;83.96
78431;BME280;67727;50.236;22.452;2024-03-22T08:44:21;99814.36;;;9.43;84.16
78431;BME280;67727;50.236;22.452;2024-03-22T08:46:48;99818.45;;;9.58;83.81
78431;BME280;67727;50.236;22.452;2024-03-22T08:49:16;99818.84;;;9.70;83.52
78431;BME280;67727;50.236;22.452;2024-03-22T08:51:45;99819.33;;;9.84;83.22
78431;BME280;67727;50.236;22.452;2024-03-22T08:54:12;99818.63;;;9.95;82.62
78431;BME280;67727;50.236;22.452;2024-03-22T08:56:39;99817.60;;;10.04;82.41
78431;BME280;67727;50.236;22.452;2024-03-22T08:59:07;99819.83;;;10.16;82.37
78431;BME280;67727;50.236;22.452;2024-03-22T09:01:33;99824.09;;;10.27;81.76
78431;BME280;67727;50.236;22.452;2024-03-22T09:04:02;99817.05;;;10.39;81.86
78431;BME280;67727;50.236;22.452;2024-03-22T09:06:29;99815.21;;;10.51;81.47
78431;BME280;67727;50.236;22.452;2024-03-22T09:08:56;99814.02;;;10.64;81.50
78431;BME280;67727;50.236;22.452;2024-03-22T09:11:24;99818.57;;;10.80;81.75
78431;BME280;67727;50.236;22.452;2024-03-22T09:13:52;99820.52;;;10.96;81.41
78431;BME280;67727;50.236;22.452;2024-03-22T09:16:23;99820.91;;;11.07;80.54
78431;BME280;67727;50.236;22.452;2024-03-22T09:18:51;99819.20;;;11.14;79.96
78431;BME280;67727;50.236;22.452;2024-03-22T09:21:18;99815.02;;;11.21;79.58
78431;BME280;67727;50.236;22.452;2024-03-22T09:23:45;99815.34;;;11.25;79.47
78431;BME280;67727;50.236;22.452;2024-03-22T09:26:13;99816.59;;;11.27;79.35
78431;BME280;67727;50.236;22.452;2024-03-22T09:28:40;99816.88;;;11.27;78.83
78431;BME280;67727;50.236;22.452;2024-03-22T09:31:08;99816.43;;;11.28;79.38
78431;BME280;67727;50.236;22.452;2024-03-22T09:33:35;99817.43;;;11.28;78.49
78431;BME280;67727;50.236;22.452;2024-03-22T09:36:03;99824.87;;;11.24;78.04
78431;BME280;67727;50.236;22.452;2024-03-22T09:38:30;99822.42;;;11.19;77.93
78431;BME280;67727;50.236;22.452;2024-03-22T09:40:57;99819.41;;;11.13;77.59
78431;BME280;67727;50.236;22.452;2024-03-22T09:43:24;99818.21;;;11.09;78.26
78431;BME280;67727;50.236;22.452;2024-03-22T09:45:55;99815.39;;;11.11;78.30
78431;BME280;67727;50.236;22.452;2024-03-22T09:48:23;99814.08;;;11.14;78.37
78431;BME280;67727;50.236;22.452;2024-03-22T09:50:50;99812.15;;;11.18;78.29
78431;BME280;67727;50.236;22.452;2024-03-22T09:53:20;99807.94;;;11.22;78.51
78431;BME280;67727;50.236;22.452;2024-03-22T09:55:49;99807.30;;;11.25;78.26
78431;BME280;67727;50.236;22.452;2024-03-22T09:58:16;99808.95;;;11.27;78.18
78431;BME280;67727;50.236;22.452;2024-03-22T10:00:46;99810.41;;;11.26;77.94
78431;BME280;67727;50.236;22.452;2024-03-22T10:03:13;99811.30;;;11.25;77.74
78431;BME280;67727;50.236;22.452;2024-03-22T10:05:40;99809.60;;;11.23;78.04
78431;BME280;67727;50.236;22.452;2024-03-22T10:08:07;99809.38;;;11.25;78.07
78431;BME280;67727;50.236;22.452;2024-03-22T10:10:34;99807.79;;;11.28;77.75
78431;BME280;67727;50.236;22.452;2024-03-22T10:13:02;99811.87;;;11.32;77.95
78431;BME280;67727;50.236;22.452;2024-03-22T10:15:30;99810.58;;;11.38;78.08
78431;BME280;67727;50.236;22.452;2024-03-22T10:17:57;99810.75;;;11.43;77.52
78431;BME280;67727;50.236;22.452;2024-03-22T10:20:25;99808.14;;;11.46;77.23
78431;BME280;67727;50.236;22.452;2024-03-22T10:22:56;99808.46;;;11.46;77.23
78431;BME280;67727;50.236;22.452;2024-03-22T10:25:28;99806.21;;;11.46;77.24
78431;BME280;67727;50.236;22.452;2024-03-22T10:27:56;99808.61;;;11.45;76.80
78431;BME280;67727;50.236;22.452;2024-03-22T10:30:24;99805.23;;;11.40;76.23
78431;BME280;67727;50.236;22.452;2024-03-22T10:32:51;99805.04;;;11.35;76.71
78431;BME280;67727;50.236;22.452;2024-03-22T10:35:18;99808.34;;;11.34;76.71
78431;BME280;67727;50.236;22.452;2024-03-22T10:37:46;99805.13;;;11.32;76.55
78431;BME280;67727;50.236;22.452;2024-03-22T10:40:12;99803.73;;;11.31;76.35
78431;BME280;67727;50.236;22.452;2024-03-22T10:42:41;99799.89;;;11.29;76.29
78431;BME280;67727;50.236;22.452;2024-03-22T10:45:09;99804.66;;;11.26;75.93
78431;BME280;67727;50.236;22.452;2024-03-22T10:47:37;99803.77;;;11.23;75.92
78431;BME280;67727;50.236;22.452;2024-03-22T10:50:06;99799.77;;;11.22;76.24
78431;BME280;67727;50.236;22.452;2024-03-22T10:55:08;99793.59;;;11.28;76.40
78431;BME280;67727;50.236;22.452;2024-03-22T10:57:38;99785.13;;;11.32;76.45
78431;BME280;67727;50.236;22.452;2024-03-22T11:00:08;99778.59;;;11.41;76.56
78431;BME280;67727;50.236;22.452;2024-03-22T11:02:38;99776.34;;;11.54;76.55
78431;BME280;67727;50.236;22.452;2024-03-22T11:05:18;99777.09;;;11.72;76.06
78431;BME280;67727;50.236;22.452;2024-03-22T11:07:45;99770.69;;;11.87;75.43
78431;BME280;67727;50.236;22.452;2024-03-22T11:10:12;99767.58;;;11.97;75.15
78431;BME280;67727;50.236;22.452;2024-03-22T11:12:40;99765.30;;;12.04;74.65
78431;BME280;67727;50.236;22.452;2024-03-22T11:15:10;99759.71;;;12.11;74.48
78431;BME280;67727;50.236;22.452;2024-03-22T11:17:38;99757.16;;;12.14;73.99
78431;BME280;67727;50.236;22.452;2024-03-22T11:20:05;99749.11;;;12.15;73.45
78431;BME280;67727;50.236;22.452;2024-03-22T11:22:32;99750.37;;;12.18;73.62
78431;BME280;67727;50.236;22.452;2024-03-22T11:24:59;99750.95;;;12.17;73.88
78431;BME280;67727;50.236;22.452;2024-03-22T11:27:26;99744.41;;;12.18;74.16
78431;BME280;67727;50.236;22.452;2024-03-22T11:29:53;99739.79;;;12.21;74.23
78431;BME280;67727;50.236;22.452;2024-03-22T11:32:21;99739.02;;;12.28;74.02
78431;BME280;67727;50.236;22.452;2024-03-22T11:34:49;99733.04;;;12.32;73.81
78431;BME280;67727;50.236;22.452;2024-03-22T11:37:16;99735.10;;;12.40;74.02
78431;BME280;67727;50.236;22.452;2024-03-22T11:39:43;99731.20;;;12.50;73.75
78431;BME280;67727;50.236;22.452;2024-03-22T11:42:10;99729.50;;;12.64;73.50
78431;BME280;67727;50.236;22.452;2024-03-22T11:44:39;99730.05;;;12.76;73.63
78431;BME280;67727;50.236;22.452;2024-03-22T11:47:06;99729.65;;;12.87;73.21
78431;BME280;67727;50.236;22.452;2024-03-22T11:49:34;99727.38;;;12.94;72.73
78431;BME280;67727;50.236;22.452;2024-03-22T11:52:01;99718.89;;;12.95;72.44
78431;BME280;67727;50.236;22.452;2024-03-22T11:54:28;99716.21;;;12.94;71.74
78431;BME280;67727;50.236;22.452;2024-03-22T11:56:58;99710.58;;;12.92;71.69
78431;BME280;67727;50.236;22.452;2024-03-22T11:59:24;99706.98;;;12.95;72.00
78431;BME280;67727;50.236;22.452;2024-03-22T12:01:51;99702.08;;;13.02;71.72
78431;BME280;67727;50.236;22.452;2024-03-22T12:04:18;99698.04;;;13.10;71.88
78431;BME280;67727;50.236;22.452;2024-03-22T12:06:45;99698.55;;;13.20;72.07
78431;BME280;67727;50.236;22.452;2024-03-22T12:09:12;99701.33;;;13.25;71.16
78431;BME280;67727;50.236;22.452;2024-03-22T12:11:40;99700.98;;;13.26;70.68
78431;BME280;67727;50.236;22.452;2024-03-22T12:14:07;99695.64;;;13.25;70.27
78431;BME280;67727;50.236;22.452;2024-03-22T12:16:33;99695.27;;;13.23;70.35
78431;BME280;67727;50.236;22.452;2024-03-22T12:19:00;99694.26;;;13.20;70.08
78431;BME280;67727;50.236;22.452;2024-03-22T12:21:27;99688.00;;;13.14;70.27
78431;BME280;67727;50.236;22.452;2024-03-22T12:23:54;99687.27;;;13.09;70.34
78431;BME280;67727;50.236;22.452;2024-03-22T12:26:20;99692.64;;;13.06;70.24
78431;BME280;67727;50.236;22.452;2024-03-22T12:28:47;99688.04;;;13.08;71.17
78431;BME280;67727;50.236;22.452;2024-03-22T12:31:17;99681.47;;;13.16;71.04
78431;BME280;67727;50.236;22.452;2024-03-22T12:33:44;99677.84;;;13.25;71.52
78431;BME280;67727;50.236;22.452;2024-03-22T12:36:11;99675.55;;;13.32;70.86
78431;BME280;67727;50.236;22.452;2024-03-22T12:38:38;99672.15;;;13.33;70.43
78431;BME280;67727;50.236;22.452;2024-03-22T12:41:04;99671.61;;;13.38;71.09
78431;BME280;67727;50.236;22.452;2024-03-22T12:43:32;99665.63;;;13.43;70.82
78431;BME280;67727;50.236;22.452;2024-03-22T12:45:59;99660.89;;;13.47;70.38
78431;BME280;67727;50.236;22.452;2024-03-22T12:48:26;99662.55;;;13.49;70.16
78431;BME280;67727;50.236;22.452;2024-03-22T12:50:53;99659.11;;;13.50;69.22
78431;BME280;67727;50.236;22.452;2024-03-22T12:53:19;99657.35;;;13.48;69.06
78431;BME280;67727;50.236;22.452;2024-03-22T12:55:46;99654.29;;;13.46;69.03
78431;BME280;67727;50.236;22.452;2024-03-22T12:58:13;99650.27;;;13.45;68.47
78431;BME280;67727;50.236;22.452;2024-03-22T13:00:40;99646.70;;;13.45;69.15